Terminal Aerodrome Forecast
Issued by NWS

Home | Current Version | Previous Version | Text Only | Print | Product List | Glossary On
Versions: 1 2 3 4 5 6 7 8 9 10 11 12 13 14 15 16 17 18 19 20 21 22 23 24
000
FTUS42 KTBW 290900 AAA
TAFRSW
TAF AMD
KRSW 290904Z 2909/3006 00000KT 6SM BR SCT007 BKN020
      TEMPO 2909/2913 4SM BR SCT005 BKN010
     FM291500 17005KT P6SM BKN025 BKN250
     FM291900 22006KT P6SM BKN050 BKN250
     FM300100 VRB06KT 6SM BR FEW010 SCT025 BKN050=

USA.gov is the U.S. government's official web portal to all federal, state and local government web resources and services.